Time;durP1;ratioP1;P1;durP2;ratioP2;P2;SDS_P1;SDS_P2;PMS_P1;PMS_P2;Temp;Humidity;BMP_temperature;BMP_pressure;BME280_temperature;BME280_humidity;BME280_pressure;Samples;Min_cycle;Max_cycle;Signal;HPM_P1;HPM_P2
2022/05/08 00:01:26;;;;;;;;;;;;;;;;;;5089885;28;829;-65
2022/05/08 00:03:52;;;;;;;;;;;;;;;;;;5071135;28;1283;-65
2022/05/08 00:06:17;;;;;;;;;;;;;;;;;;5088449;28;1207;-65
2022/05/08 00:08:42;;;;;;;;;;;;;;;;;;5084629;28;1902;-65
2022/05/08 00:11:07;;;;;;;;;;;;;;;;;;5071472;28;1167;-65
2022/05/08 00:13:35;;;;;;;;;;;;;;;;;;5070949;28;1049;-65
2022/05/08 00:16:00;;;;;;;;;;;;;;;;;;5070122;28;1238;-65
2022/05/08 00:18:26;;;;;;;;;;;;;;;;;;5069572;28;825;-65
2022/05/08 00:20:51;;;;;;;;;;;;;;;;;;5070128;28;1186;-65
2022/05/08 00:23:16;;;;;;;;;;;;;;;;;;5071331;28;804;-65
2022/05/08 00:25:41;;;;;;;;;;;;;;;;;;5069960;28;954;-65
2022/05/08 00:28:07;;;;;;;;;;;;;;;;;;5069804;28;1140;-65
2022/05/08 00:30:32;;;;;;;;;;;;;;;;;;5052745;28;1914;-65
2022/05/08 00:32:58;;;;;;;;;;;;;;;;;;5068818;28;840;-65
2022/05/08 00:35:23;;;;;;;;;;;;;;;;;;5069680;28;967;-65
2022/05/08 00:37:48;;;;;;;;;;;;;;;;;;5070738;28;804;-65
2022/05/08 00:40:13;;;;;;;;;;;;;;;;;;5069335;28;884;-65
2022/05/08 00:42:39;;;;;;;;;;;;;;;;;;5069309;28;1171;-65
2022/05/08 00:45:05;;;;;;;;;;;;;;;;;;5070870;28;825;-65
2022/05/08 00:47:30;;;;;;;;;;;;;;;;;;5069270;28;829;-65
2022/05/08 00:49:55;;;;;;;;;;;;;;;;;;5068782;28;1977;-65
2022/05/08 00:52:21;;;;;;;;;;;;;;;;;;5068870;28;852;-65
2022/05/08 00:54:46;;;;;;;;;;;;;;;;;;5070715;28;931;-65
2022/05/08 00:57:12;;;;;;;;;;;;;;;;;;5070814;28;785;-65
2022/05/08 00:59:37;;;;;;;;;;;;;;;;;;5085722;28;1339;-65
2022/05/08 01:02:03;;;;;;;;;;;;;;;;;;5086006;28;1038;-65
2022/05/08 01:04:29;;;;;;;;;;;;;;;;;;5070596;28;774;-65
2022/05/08 01:06:55;;;;;;;;;;;;;;;;;;5070202;28;856;-65
2022/05/08 01:09:20;;;;;;;;;;;;;;;;;;5069256;28;1947;-65
2022/05/08 01:11:45;;;;;;;;;;;;;;;;;;5069035;28;1309;-65
2022/05/08 01:14:12;;;;;;;;;;;;;;;;;;5070631;28;904;-65
2022/05/08 01:16:37;;;;;;;;;;;;;;;;;;5070974;28;849;-65
2022/05/08 01:19:03;;;;;;;;;;;;;;;;;;5069058;28;913;-65
2022/05/08 01:21:31;;;;;;;;;;;;;;;;;;5070592;28;895;-65
2022/05/08 01:23:56;;;;;;;;;;;;;;;;;;5070412;28;995;-65
2022/05/08 01:26:22;;;;;;;;;;;;;;;;;;5071244;28;841;-65
2022/05/08 01:28:48;;;;;;;;;;;;;;;;;;5070482;28;1914;-65
2022/05/08 01:31:13;;;;;;;;;;;;;;;;;;5070935;28;782;-65
2022/05/08 01:33:39;;;;;;;;;;;;;;;;;;5068834;28;1183;-65
2022/05/08 01:36:04;;;;;;;;;;;;;;;;;;5068773;28;1376;-65
2022/05/08 01:38:29;;;;;;;;;;;;;;;;;;5068945;28;778;-65
2022/05/08 01:40:55;;;;;;;;;;;;;;;;;;5069024;28;1167;-65
2022/05/08 01:43:20;;;;;;;;;;;;;;;;;;5052658;28;1417;-65
2022/05/08 01:45:47;;;;;;;;;;;;;;;;;;5054539;28;1641;-65
2022/05/08 01:48:23;;;;;;;;;;;;;;;;;;5056063;28;1505;-65
2022/05/08 01:50:55;;;;;;;;;;;;;;;;;;5072315;28;1894;-65
2022/05/08 01:53:22;;;;;;;;;;;;;;;;;;5072602;28;1401;-65
2022/05/08 01:55:49;;;;;;;;;;;;;;;;;;5072623;28;1156;-65
2022/05/08 01:58:15;;;;;;;;;;;;;;;;;;5072719;28;1246;-65
2022/05/08 02:00:40;;;;;;;;;;;;;;;;;;5056106;28;1258;-65
2022/05/08 02:03:06;;;;;;;;;;;;;;;;;;5073165;28;841;-65
2022/05/08 02:05:31;;;;;;;;;;;;;;;;;;5072440;28;1456;-65
2022/05/08 02:07:56;;;;;;;;;;;;;;;;;;5074407;28;1048;-65
2022/05/08 02:10:22;;;;;;;;;;;;;;;;;;5074335;28;1898;-65
2022/05/08 02:12:48;;;;;;;;;;;;;;;;;;5055346;28;1342;-65
2022/05/08 02:15:14;;;;;;;;;;;;;;;;;;5056334;28;1294;-65
2022/05/08 02:17:40;;;;;;;;;;;;;;;;;;5073956;28;766;-65
2022/05/08 02:20:06;;;;;;;;;;;;;;;;;;5074278;28;1117;-65
2022/05/08 02:22:32;;;;;;;;;;;;;;;;;;5074039;28;1193;-65
2022/05/08 02:24:57;;;;;;;;;;;;;;;;;;5074022;28;1001;-65
2022/05/08 02:27:22;;;;;;;;;;;;;;;;;;5074216;28;1007;-65
2022/05/08 02:29:48;;;;;;;;;;;;;;;;;;5072806;28;1981;-65
2022/05/08 02:32:13;;;;;;;;;;;;;;;;;;5073008;28;836;-65
2022/05/08 02:34:38;;;;;;;;;;;;;;;;;;5071799;28;773;-65
2022/05/08 02:37:04;;;;;;;;;;;;;;;;;;5073032;28;845;-65
2022/05/08 02:39:29;;;;;;;;;;;;;;;;;;5073249;28;789;-65
2022/05/08 02:41:54;;;;;;;;;;;;;;;;;;5072614;28;916;-66
2022/05/08 02:44:20;;;;;;;;;;;;;;;;;;5071652;28;941;-65
2022/05/08 02:46:45;;;;;;;;;;;;;;;;;;5072385;28;912;-66
2022/05/08 02:49:10;;;;;;;;;;;;;;;;;;5054554;28;1949;-65
2022/05/08 02:51:36;;;;;;;;;;;;;;;;;;5072573;28;797;-66
2022/05/08 02:54:01;;;;;;;;;;;;;;;;;;5072536;28;991;-65
2022/05/08 02:59:10;;;;;;;;;;;;;;;;;;5071620;28;718;-65
2022/05/08 03:01:35;;;;;;;;;;;;;;;;;;5070905;28;844;-65
2022/05/08 03:04:01;;;;;;;;;;;;;;;;;;5070834;28;1011;-65
2022/05/08 03:06:26;;;;;;;;;;;;;;;;;;5071003;28;1372;-65
2022/05/08 03:08:52;;;;;;;;;;;;;;;;;;5070871;28;1971;-65
2022/05/08 03:11:26;;;;;;;;;;;;;;;;;;5071102;28;1219;-65
2022/05/08 03:13:52;;;;;;;;;;;;;;;;;;5072101;28;849;-65
2022/05/08 03:16:17;;;;;;;;;;;;;;;;;;5072163;28;1011;-65
2022/05/08 03:18:44;;;;;;;;;;;;;;;;;;5071599;28;895;-65
2022/05/08 03:21:11;;;;;;;;;;;;;;;;;;5070969;28;1048;-65
2022/05/08 03:23:36;;;;;;;;;;;;;;;;;;5071959;28;975;-65
2022/05/08 03:26:02;;;;;;;;;;;;;;;;;;5070001;28;1515;-65
2022/05/08 03:28:28;;;;;;;;;;;;;;;;;;5072273;28;876;-65
2022/05/08 03:30:53;;;;;;;;;;;;;;;;;;5072006;28;1913;-65
2022/05/08 03:33:18;;;;;;;;;;;;;;;;;;5071730;28;987;-65
2022/05/08 03:35:44;;;;;;;;;;;;;;;;;;5070282;28;1222;-65
2022/05/08 03:38:09;;;;;;;;;;;;;;;;;;5072185;28;878;-65
2022/05/08 03:40:35;;;;;;;;;;;;;;;;;;5088992;28;845;-65
2022/05/08 03:43:01;;;;;;;;;;;;;;;;;;5090729;28;1591;-65
2022/05/08 03:45:26;;;;;;;;;;;;;;;;;;5092184;28;809;-65
2022/05/08 03:47:52;;;;;;;;;;;;;;;;;;5090416;28;1177;-65
2022/05/08 03:50:18;;;;;;;;;;;;;;;;;;5092670;28;1963;-65
2022/05/08 03:52:43;;;;;;;;;;;;;;;;;;5091708;28;845;-65
2022/05/08 03:55:08;;;;;;;;;;;;;;;;;;5092359;28;828;-65
2022/05/08 03:57:34;;;;;;;;;;;;;;;;;;5107631;28;1611;-65
2022/05/08 03:59:59;;;;;;;;;;;;;;;;;;5091486;28;845;-65
2022/05/08 04:02:24;;;;;;;;;;;;;;;;;;5092154;28;864;-65
2022/05/08 04:04:50;;;;;;;;;;;;;;;;;;5090626;28;1392;-65
2022/05/08 04:07:15;;;;;;;;;;;;;;;;;;5090178;28;1342;-65
2022/05/08 04:09:40;;;;;;;;;;;;;;;;;;5090519;28;1906;-65
2022/05/08 04:12:05;;;;;;;;;;;;;;;;;;5091336;28;1077;-65
2022/05/08 04:14:31;;;;;;;;;;;;;;;;;;5091799;28;828;-65
2022/05/08 04:16:56;;;;;;;;;;;;;;;;;;5107083;28;1138;-65
2022/05/08 04:19:21;;;;;;;;;;;;;;;;;;5107637;28;1400;-65
2022/05/08 04:21:46;;;;;;;;;;;;;;;;;;5091394;28;1033;-65
2022/05/08 04:24:17;;;;;;;;;;;;;;;;;;5092010;28;872;-65
2022/05/08 04:26:43;;;;;;;;;;;;;;;;;;5090347;28;860;-65
2022/05/08 04:29:08;;;;;;;;;;;;;;;;;;5091209;28;1973;-65
2022/05/08 04:31:33;;;;;;;;;;;;;;;;;;5091176;28;995;-65
2022/05/08 04:33:59;;;;;;;;;;;;;;;;;;5106539;28;1194;-65
2022/05/08 04:36:24;;;;;;;;;;;;;;;;;;5091493;28;875;-65
2022/05/08 04:38:49;;;;;;;;;;;;;;;;;;5089384;28;1206;-65
2022/05/08 04:41:15;;;;;;;;;;;;;;;;;;5091662;28;817;-65
2022/05/08 04:43:40;;;;;;;;;;;;;;;;;;5091996;28;916;-65
2022/05/08 04:46:05;;;;;;;;;;;;;;;;;;5089262;28;810;-65
2022/05/08 04:48:31;;;;;;;;;;;;;;;;;;5106347;28;1291;-65
2022/05/08 04:50:56;;;;;;;;;;;;;;;;;;5106245;28;1910;-65
2022/05/08 04:53:21;;;;;;;;;;;;;;;;;;5091409;28;832;-65
2022/05/08 04:55:47;;;;;;;;;;;;;;;;;;5089496;28;1487;-65
2022/05/08 04:58:12;;;;;;;;;;;;;;;;;;5090126;28;785;-65
2022/05/08 05:00:37;;;;;;;;;;;;;;;;;;5089699;28;1147;-65
2022/05/08 05:03:03;;;;;;;;;;;;;;;;;;5090851;28;857;-65
2022/05/08 05:05:28;;;;;;;;;;;;;;;;;;5106447;28;1363;-65
2022/05/08 05:07:54;;;;;;;;;;;;;;;;;;5090979;28;994;-65
2022/05/08 05:10:19;;;;;;;;;;;;;;;;;;5089837;28;1902;-65
2022/05/08 05:12:45;;;;;;;;;;;;;;;;;;5090936;28;1064;-65
2022/05/08 05:15:11;;;;;;;;;;;;;;;;;;5091164;28;897;-65
2022/05/08 05:17:36;;;;;;;;;;;;;;;;;;5106583;28;1346;-65
2022/05/08 05:20:02;;;;;;;;;;;;;;;;;;5093778;28;904;-65
2022/05/08 05:22:27;;;;;;;;;;;;;;;;;;5095205;28;904;-65
2022/05/08 05:24:55;;;;;;;;;;;;;;;;;;5093676;28;1183;-65
2022/05/08 05:27:20;;;;;;;;;;;;;;;;;;5110772;28;1245;-65
2022/05/08 05:29:45;;;;;;;;;;;;;;;;;;5094506;28;1907;-65
2022/05/08 05:32:11;;;;;;;;;;;;;;;;;;5093563;28;1167;-64
2022/05/08 05:34:36;;;;;;;;;;;;;;;;;;5093006;28;840;-65
2022/05/08 05:37:01;;;;;;;;;;;;;;;;;;5094273;28;1006;-65
2022/05/08 05:39:27;;;;;;;;;;;;;;;;;;5110554;28;1183;-65
2022/05/08 05:41:52;;;;;;;;;;;;;;;;;;5110560;28;1163;-65
2022/05/08 05:44:17;;;;;;;;;;;;;;;;;;5094615;28;900;-65
2022/05/08 05:49:27;;;;;;;;;;;;;;;;;;5094830;28;1898;-65
2022/05/08 05:51:56;;;;;;;;;;;;;;;;;;5094404;28;856;-65
2022/05/08 05:54:21;;;;;;;;;;;;;;;;;;5094703;28;868;-65
2022/05/08 05:56:47;;;;;;;;;;;;;;;;;;5094629;28;817;-65
2022/05/08 05:59:13;;;;;;;;;;;;;;;;;;5103760;28;1186;-65
2022/05/08 06:01:38;;;;;;;;;;;;;;;;;;5073088;28;840;-65
2022/05/08 06:04:03;;;;;;;;;;;;;;;;;;5074027;28;785;-67
2022/05/08 06:06:28;;;;;;;;;;;;;;;;;;5072543;28;1342;-66
2022/05/08 06:08:54;;;;;;;;;;;;;;;;;;5073878;28;1901;-66
2022/05/08 06:11:19;;;;;;;;;;;;;;;;;;5071893;28;1338;-66
2022/05/08 06:13:44;;;;;;;;;;;;;;;;;;5073488;28;1061;-66
2022/05/08 06:16:10;;;;;;;;;;;;;;;;;;5071921;28;916;-66
2022/05/08 06:18:35;;;;;;;;;;;;;;;;;;5074076;28;955;-66
2022/05/08 06:21:00;;;;;;;;;;;;;;;;;;5073246;28;860;-65
2022/05/08 06:23:25;;;;;;;;;;;;;;;;;;5073791;28;912;-65
2022/05/08 06:25:51;;;;;;;;;;;;;;;;;;5072179;28;1434;-65
2022/05/08 06:28:19;;;;;;;;;;;;;;;;;;5073094;28;820;-65
2022/05/08 06:30:45;;;;;;;;;;;;;;;;;;5072723;28;1918;-65
2022/05/08 06:33:10;;;;;;;;;;;;;;;;;;5071467;28;904;-66
2022/05/08 06:35:37;;;;;;;;;;;;;;;;;;5073061;28;873;-65
2022/05/08 06:38:02;;;;;;;;;;;;;;;;;;5073002;28;899;-65
2022/05/08 06:40:27;;;;;;;;;;;;;;;;;;5073391;28;912;-65
2022/05/08 06:42:53;;;;;;;;;;;;;;;;;;5073378;28;883;-66
2022/05/08 06:45:23;;;;;;;;;;;;;;;;;;5072123;28;785;-66
2022/05/08 06:47:49;;;;;;;;;;;;;;;;;;5073327;28;837;-67
2022/05/08 06:50:14;;;;;;;;;;;;;;;;;;5072604;28;1898;-66
2022/05/08 06:52:39;;;;;;;;;;;;;;;;;;5072148;28;1237;-67
2022/05/08 06:55:05;;;;;;;;;;;;;;;;;;5071660;28;1106;-67
2022/05/08 06:57:30;;;;;;;;;;;;;;;;;;5071382;28;869;-65
2022/05/08 07:02:40;;;;;;;;;;;;;;;;;;5073286;28;686;-66
2022/05/08 07:05:06;;;;;;;;;;;;;;;;;;5072904;28;892;-66
2022/05/08 07:07:31;;;;;;;;;;;;;;;;;;5072520;28;996;-67
2022/05/08 07:09:56;;;;;;;;;;;;;;;;;;5072338;28;1917;-66
2022/05/08 07:12:23;;;;;;;;;;;;;;;;;;5072661;28;1233;-67
2022/05/08 07:14:48;;;;;;;;;;;;;;;;;;5072838;28;860;-67
2022/05/08 07:17:13;;;;;;;;;;;;;;;;;;5073072;28;920;-70
2022/05/08 07:19:39;;;;;;;;;;;;;;;;;;5073244;28;920;-67
2022/05/08 07:22:04;;;;;;;;;;;;;;;;;;5054573;28;1155;-66
2022/05/08 07:24:30;;;;;;;;;;;;;;;;;;5072774;28;884;-67
2022/05/08 07:26:55;;;;;;;;;;;;;;;;;;5072984;28;877;-67
2022/05/08 07:29:20;;;;;;;;;;;;;;;;;;5073310;28;1909;-67
2022/05/08 07:31:45;;;;;;;;;;;;;;;;;;5071725;28;782;-67
2022/05/08 07:36:55;;;;;;;;;;;;;;;;;;5073055;28;782;-67
2022/05/08 07:39:20;;;;;;;;;;;;;;;;;;5055123;28;1258;-68
2022/05/08 07:41:45;;;;;;;;;;;;;;;;;;5072868;28;975;-67
2022/05/08 07:44:10;;;;;;;;;;;;;;;;;;5072897;28;797;-66
2022/05/08 07:46:36;;;;;;;;;;;;;;;;;;5071488;28;929;-67
2022/05/08 07:49:01;;;;;;;;;;;;;;;;;;5073142;28;1952;-67
2022/05/08 07:51:26;;;;;;;;;;;;;;;;;;5070796;28;1215;-67
2022/05/08 07:53:52;;;;;;;;;;;;;;;;;;5071977;28;829;-65
2022/05/08 07:56:17;;;;;;;;;;;;;;;;;;5073029;28;820;-68
2022/05/08 07:58:42;;;;;;;;;;;;;;;;;;5071374;28;1247;-68
2022/05/08 08:01:08;;;;;;;;;;;;;;;;;;5054123;28;1123;-67
2022/05/08 08:03:33;;;;;;;;;;;;;;;;;;5070256;28;860;-67
2022/05/08 08:05:59;;;;;;;;;;;;;;;;;;5071616;28;891;-65
2022/05/08 08:08:25;;;;;;;;;;;;;;;;;;5072035;28;949;-66
2022/05/08 08:10:56;;;;;;;;;;;;;;;;;;5053139;28;1901;-66
2022/05/08 08:13:24;;;;;;;;;;;;;;;;;;5070350;28;1592;-65
2022/05/08 08:15:49;;;;;;;;;;;;;;;;;;5053630;28;1104;-65
2022/05/08 08:18:15;;;;;;;;;;;;;;;;;;5069730;28;1144;-65
2022/05/08 08:20:40;;;;;;;;;;;;;;;;;;5071206;28;1006;-66
2022/05/08 08:23:06;;;;;;;;;;;;;;;;;;5071253;28;793;-66
2022/05/08 08:25:32;;;;;;;;;;;;;;;;;;5070783;28;876;-66
2022/05/08 08:27:57;;;;;;;;;;;;;;;;;;5069673;28;1214;-66
2022/05/08 08:30:22;;;;;;;;;;;;;;;;;;5052977;28;2234;-66
2022/05/08 08:32:48;;;;;;;;;;;;;;;;;;5071310;28;888;-66
2022/05/08 08:35:14;;;;;;;;;;;;;;;;;;5071365;28;903;-66
2022/05/08 08:37:39;;;;;;;;;;;;;;;;;;5069578;28;1337;-66
2022/05/08 08:40:05;;;;;;;;;;;;;;;;;;5069824;28;1296;-66
2022/05/08 08:42:31;;;;;;;;;;;;;;;;;;5071215;28;1099;-66
2022/05/08 08:47:47;;;;;;;;;;;;;;;;;;5070546;28;633;-66
2022/05/08 08:50:12;;;;;;;;;;;;;;;;;;5070811;28;1909;-66
2022/05/08 08:52:38;;;;;;;;;;;;;;;;;;5070844;28;868;-66
2022/05/08 08:55:08;;;;;;;;;;;;;;;;;;5072614;28;892;-65
2022/05/08 08:57:33;;;;;;;;;;;;;;;;;;5057381;28;1240;-65
2022/05/08 08:59:58;;;;;;;;;;;;;;;;;;5074049;28;1171;-65
2022/05/08 09:02:24;;;;;;;;;;;;;;;;;;5074757;28;1067;-66
2022/05/08 09:04:50;;;;;;;;;;;;;;;;;;5057635;28;1218;-65
2022/05/08 09:07:33;;;;;;;;;;;;;;;;;;5075719;28;906;-65
2022/05/08 09:10:08;;;;;;;;;;;;;;;;;;5075258;28;1886;-65
2022/05/08 09:12:34;;;;;;;;;;;;;;;;;;5075269;28;1281;-65
2022/05/08 09:14:59;;;;;;;;;;;;;;;;;;5075514;28;959;-65
2022/05/08 09:17:41;;;;;;;;;;;;;;;;;;5075986;28;970;-66
2022/05/08 09:20:07;;;;;;;;;;;;;;;;;;5075597;28;900;-65
2022/05/08 09:22:33;;;;;;;;;;;;;;;;;;5074206;28;1345;-65
2022/05/08 09:25:02;;;;;;;;;;;;;;;;;;5075455;28;1081;-65
2022/05/08 09:27:28;;;;;;;;;;;;;;;;;;5074112;28;845;-65
2022/05/08 09:30:06;;;;;;;;;;;;;;;;;;5073417;28;1917;-65
2022/05/08 09:32:35;;;;;;;;;;;;;;;;;;5073139;28;1182;-65
2022/05/08 09:35:01;;;;;;;;;;;;;;;;;;5074514;28;836;-65
2022/05/08 09:37:27;;;;;;;;;;;;;;;;;;5073207;28;829;-66
2022/05/08 09:40:12;;;;;;;;;;;;;;;;;;5073384;28;1012;-66
2022/05/08 09:42:38;;;;;;;;;;;;;;;;;;5072325;28;1270;-65
2022/05/08 09:45:05;;;;;;;;;;;;;;;;;;5073143;28;1317;-65
2022/05/08 09:47:43;;;;;;;;;;;;;;;;;;5072852;28;1584;-65
2022/05/08 09:50:09;;;;;;;;;;;;;;;;;;5072602;28;1965;-65
2022/05/08 09:52:36;;;;;;;;;;;;;;;;;;5072392;28;1384;-65
2022/05/08 09:55:01;;;;;;;;;;;;;;;;;;5073822;28;947;-65
2022/05/08 09:57:27;;;;;;;;;;;;;;;;;;5072684;28;1501;-65
2022/05/08 09:59:52;;;;;;;;;;;;;;;;;;5072347;28;770;-66
2022/05/08 10:02:18;;;;;;;;;;;;;;;;;;5055947;28;1360;-65
2022/05/08 10:04:43;;;;;;;;;;;;;;;;;;5073191;28;833;-65
2022/05/08 10:07:11;;;;;;;;;;;;;;;;;;5072771;28;901;-65
2022/05/08 10:15:18;;;;;;;;;;;;;;;;;;5073500;28;689;-66
2022/05/08 10:17:43;;;;;;;;;;;;;;;;;;5073125;28;931;-65
2022/05/08 10:20:09;;;;;;;;;;;;;;;;;;5054978;28;1230;-65
2022/05/08 10:22:50;;;;;;;;;;;;;;;;;;5073106;28;805;-65
2022/05/08 10:25:16;;;;;;;;;;;;;;;;;;5071574;28;1435;-66
2022/05/08 10:28:01;;;;;;;;;;;;;;;;;;5071637;28;916;-66
2022/05/08 10:30:27;;;;;;;;;;;;;;;;;;5073039;28;1898;-65
2022/05/08 10:32:52;;;;;;;;;;;;;;;;;;5071373;28;859;-66
2022/05/08 10:35:25;;;;;;;;;;;;;;;;;;5073279;28;780;-65
2022/05/08 10:37:52;;;;;;;;;;;;;;;;;;5072446;28;943;-65
2022/05/08 10:40:23;;;;;;;;;;;;;;;;;;5073234;28;1086;-65
2022/05/08 10:42:48;;;;;;;;;;;;;;;;;;5072474;28;979;-65
2022/05/08 10:45:32;;;;;;;;;;;;;;;;;;5055045;28;1556;-66
2022/05/08 10:48:04;;;;;;;;;;;;;;;;;;5072755;28;829;-65
2022/05/08 10:50:29;;;;;;;;;;;;;;;;;;5073040;28;1961;-66
2022/05/08 10:52:55;;;;;;;;;;;;;;;;;;5070977;28;1209;-65
2022/05/08 10:55:20;;;;;;;;;;;;;;;;;;5073551;28;841;-65
2022/05/08 10:57:47;;;;;;;;;;;;;;;;;;5072989;28;884;-66
2022/05/08 11:00:16;;;;;;;;;;;;;;;;;;5073176;28;793;-66
2022/05/08 11:02:55;;;;;;;;;;;;;;;;;;5072414;28;1233;-65
2022/05/08 11:05:23;;;;;;;;;;;;;;;;;;5071135;28;1304;-66
2022/05/08 11:07:53;;;;;;;;;;;;;;;;;;5070735;28;1334;-65
2022/05/08 11:10:22;;;;;;;;;;;;;;;;;;5071268;28;1890;-66
2022/05/08 11:13:01;;;;;;;;;;;;;;;;;;5070646;28;1275;-66
2022/05/08 11:15:30;;;;;;;;;;;;;;;;;;5072526;28;848;-65
2022/05/08 11:18:07;;;;;;;;;;;;;;;;;;5071497;28;952;-65
2022/05/08 11:20:33;;;;;;;;;;;;;;;;;;5072418;28;860;-65
2022/05/08 11:22:58;;;;;;;;;;;;;;;;;;5070600;28;790;-65
2022/05/08 11:25:24;;;;;;;;;;;;;;;;;;5070840;28;1245;-65
2022/05/08 11:27:53;;;;;;;;;;;;;;;;;;5070547;28;1237;-65
2022/05/08 11:30:27;;;;;;;;;;;;;;;;;;5070547;28;1910;-65
2022/05/08 11:38:22;;;;;;;;;;;;;;;;;;5071065;28;693;-65
2022/05/08 11:40:47;;;;;;;;;;;;;;;;;;5071658;28;620;-65
2022/05/08 11:43:32;;;;;;;;;;;;;;;;;;5071817;28;1060;-65
2022/05/08 11:45:59;;;;;;;;;;;;;;;;;;5071091;28;993;-65
2022/05/08 11:48:30;;;;;;;;;;;;;;;;;;5071929;28;770;-65
2022/05/08 11:50:55;;;;;;;;;;;;;;;;;;5071200;28;1910;-65
2022/05/08 11:53:21;;;;;;;;;;;;;;;;;;5071718;28;1014;-65
2022/05/08 11:55:46;;;;;;;;;;;;;;;;;;5070258;28;798;-65
2022/05/08 11:58:11;;;;;;;;;;;;;;;;;;5071457;28;1003;-65
2022/05/08 12:00:36;;;;;;;;;;;;;;;;;;5071416;28;999;-65
2022/05/08 12:03:02;;;;;;;;;;;;;;;;;;5070933;28;999;-65
2022/05/08 12:05:28;;;;;;;;;;;;;;;;;;5071703;28;1212;-65
2022/05/08 12:07:54;;;;;;;;;;;;;;;;;;5070763;28;992;-65
2022/05/08 12:10:20;;;;;;;;;;;;;;;;;;5053918;28;1898;-66
2022/05/08 12:12:46;;;;;;;;;;;;;;;;;;5070038;28;1177;-66
2022/05/08 12:15:11;;;;;;;;;;;;;;;;;;5069596;28;884;-66
2022/05/08 12:17:43;;;;;;;;;;;;;;;;;;5070419;28;1401;-66
2022/05/08 12:20:09;;;;;;;;;;;;;;;;;;5070768;28;833;-66
2022/05/08 12:22:35;;;;;;;;;;;;;;;;;;5071038;28;907;-66
2022/05/08 12:25:00;;;;;;;;;;;;;;;;;;5069485;28;1163;-66
2022/05/08 12:27:26;;;;;;;;;;;;;;;;;;5071027;28;888;-66
2022/05/08 12:29:52;;;;;;;;;;;;;;;;;;5086289;28;1918;-66
2022/05/08 12:32:18;;;;;;;;;;;;;;;;;;5071776;28;911;-66
2022/05/08 12:34:44;;;;;;;;;;;;;;;;;;5071499;28;891;-66
2022/05/08 12:37:10;;;;;;;;;;;;;;;;;;5069478;28;1307;-66
2022/05/08 12:39:35;;;;;;;;;;;;;;;;;;5071515;28;888;-66
2022/05/08 12:42:01;;;;;;;;;;;;;;;;;;5069488;28;1464;-66
2022/05/08 12:44:26;;;;;;;;;;;;;;;;;;5071778;28;928;-66
2022/05/08 12:46:52;;;;;;;;;;;;;;;;;;5071559;28;1058;-66
2022/05/08 12:49:17;;;;;;;;;;;;;;;;;;5053674;28;1902;-66
2022/05/08 12:51:43;;;;;;;;;;;;;;;;;;5071476;28;1178;-66
2022/05/08 12:54:08;;;;;;;;;;;;;;;;;;5052751;28;1195;-66
2022/05/08 12:56:34;;;;;;;;;;;;;;;;;;5069574;28;786;-66
2022/05/08 13:01:44;;;;;;;;;;;;;;;;;;5071541;28;646;-66
2022/05/08 13:04:10;;;;;;;;;;;;;;;;;;5070609;28;968;-66
2022/05/08 13:06:35;;;;;;;;;;;;;;;;;;5070745;28;1000;-66
2022/05/08 13:09:02;;;;;;;;;;;;;;;;;;5070492;28;952;-66
2022/05/08 13:11:28;;;;;;;;;;;;;;;;;;5069671;28;1949;-65
2022/05/08 13:13:53;;;;;;;;;;;;;;;;;;5052534;28;1301;-65
2022/05/08 13:16:18;;;;;;;;;;;;;;;;;;5070793;28;978;-66
2022/05/08 13:18:44;;;;;;;;;;;;;;;;;;5069542;28;1176;-66
2022/05/08 13:21:09;;;;;;;;;;;;;;;;;;5070834;28;999;-66
2022/05/08 13:23:35;;;;;;;;;;;;;;;;;;5069405;28;1305;-66
2022/05/08 13:26:00;;;;;;;;;;;;;;;;;;5070544;28;788;-66
2022/05/08 13:28:29;;;;;;;;;;;;;;;;;;5071414;28;781;-66
2022/05/08 13:30:54;;;;;;;;;;;;;;;;;;5052640;28;1910;-65
2022/05/08 13:33:20;;;;;;;;;;;;;;;;;;5053030;28;1425;-65
2022/05/08 13:35:45;;;;;;;;;;;;;;;;;;5069349;28;1438;-65
2022/05/08 13:38:11;;;;;;;;;;;;;;;;;;5069086;28;824;-65
2022/05/08 13:40:37;;;;;;;;;;;;;;;;;;5073585;28;821;-65
2022/05/08 13:43:02;;;;;;;;;;;;;;;;;;5055828;28;1156;-65
2022/05/08 13:45:28;;;;;;;;;;;;;;;;;;5074238;28;892;-65
2022/05/08 13:47:53;;;;;;;;;;;;;;;;;;5074149;28;943;-65
2022/05/08 13:50:19;;;;;;;;;;;;;;;;;;5072468;28;1953;-65
2022/05/08 13:52:46;;;;;;;;;;;;;;;;;;5072846;28;883;-65
2022/05/08 13:55:14;;;;;;;;;;;;;;;;;;5073692;28;805;-65
2022/05/08 13:57:40;;;;;;;;;;;;;;;;;;5074116;28;907;-65
2022/05/08 14:00:11;;;;;;;;;;;;;;;;;;5073143;28;845;-65
2022/05/08 14:02:36;;;;;;;;;;;;;;;;;;5073721;28;868;-65
2022/05/08 14:05:02;;;;;;;;;;;;;;;;;;5072017;28;900;-65
2022/05/08 14:07:27;;;;;;;;;;;;;;;;;;5073788;28;929;-65
2022/05/08 14:09:53;;;;;;;;;;;;;;;;;;5072027;28;1953;-65
2022/05/08 14:12:19;;;;;;;;;;;;;;;;;;5073113;28;1248;-65
2022/05/08 14:14:44;;;;;;;;;;;;;;;;;;5073243;28;876;-65
2022/05/08 14:17:09;;;;;;;;;;;;;;;;;;5073377;28;856;-65
2022/05/08 14:19:35;;;;;;;;;;;;;;;;;;5072359;28;1039;-66
2022/05/08 14:22:00;;;;;;;;;;;;;;;;;;5072054;28;966;-65
2022/05/08 14:24:25;;;;;;;;;;;;;;;;;;5073318;28;821;-65
2022/05/08 14:26:50;;;;;;;;;;;;;;;;;;5055600;28;1216;-65
2022/05/08 14:29:16;;;;;;;;;;;;;;;;;;5073265;28;1898;-65
2022/05/08 14:37:09;;;;;;;;;;;;;;;;;;5071700;28;739;-65
2022/05/08 14:39:35;;;;;;;;;;;;;;;;;;5073084;28;912;-65
2022/05/08 14:42:00;;;;;;;;;;;;;;;;;;5071247;28;1208;-66
2022/05/08 14:44:25;;;;;;;;;;;;;;;;;;5072913;28;773;-65
2022/05/08 14:46:51;;;;;;;;;;;;;;;;;;5071676;28;1304;-65
2022/05/08 14:49:16;;;;;;;;;;;;;;;;;;5054921;28;1961;-66
2022/05/08 14:51:41;;;;;;;;;;;;;;;;;;5070943;28;955;-65
2022/05/08 14:54:07;;;;;;;;;;;;;;;;;;5072579;28;987;-65
2022/05/08 14:56:33;;;;;;;;;;;;;;;;;;5072747;28;845;-64
2022/05/08 14:58:58;;;;;;;;;;;;;;;;;;5072518;28;741;-65
2022/05/08 15:01:23;;;;;;;;;;;;;;;;;;5073102;28;1162;-65
2022/05/08 15:03:49;;;;;;;;;;;;;;;;;;5071297;28;797;-65
2022/05/08 15:06:14;;;;;;;;;;;;;;;;;;5072063;28;904;-65
2022/05/08 15:08:42;;;;;;;;;;;;;;;;;;5072857;28;841;-65
2022/05/08 15:11:07;;;;;;;;;;;;;;;;;;5071112;28;1906;-65
2022/05/08 15:13:32;;;;;;;;;;;;;;;;;;5072485;28;1228;-65
2022/05/08 15:15:58;;;;;;;;;;;;;;;;;;5072712;28;932;-65
2022/05/08 15:21:07;;;;;;;;;;;;;;;;;;5072862;28;917;-65
2022/05/08 15:23:32;;;;;;;;;;;;;;;;;;5072701;28;750;-65
2022/05/08 15:25:57;;;;;;;;;;;;;;;;;;5072140;28;817;-65
2022/05/08 15:28:23;;;;;;;;;;;;;;;;;;5071098;28;880;-66
2022/05/08 15:30:49;;;;;;;;;;;;;;;;;;5054671;28;2016;-66
2022/05/08 15:33:14;;;;;;;;;;;;;;;;;;5070419;28;951;-66
2022/05/08 15:35:40;;;;;;;;;;;;;;;;;;5054516;28;1281;-66
2022/05/08 15:38:05;;;;;;;;;;;;;;;;;;5072770;28;857;-66
2022/05/08 15:40:30;;;;;;;;;;;;;;;;;;5072251;28;1027;-66
2022/05/08 15:42:56;;;;;;;;;;;;;;;;;;5072274;28;824;-66
2022/05/08 15:45:21;;;;;;;;;;;;;;;;;;5072750;28;848;-66
2022/05/08 15:47:46;;;;;;;;;;;;;;;;;;5072751;28;844;-66
2022/05/08 15:50:12;;;;;;;;;;;;;;;;;;5072329;28;1894;-66
2022/05/08 15:52:38;;;;;;;;;;;;;;;;;;5071434;28;1341;-66
2022/05/08 15:55:03;;;;;;;;;;;;;;;;;;5072791;28;962;-65
2022/05/08 15:57:29;;;;;;;;;;;;;;;;;;5071585;28;908;-66
2022/05/08 15:59:54;;;;;;;;;;;;;;;;;;5080835;28;1223;-65
2022/05/08 16:02:20;;;;;;;;;;;;;;;;;;5074995;28;1321;-66
2022/05/08 16:04:46;;;;;;;;;;;;;;;;;;5092445;28;983;-66
2022/05/08 16:07:11;;;;;;;;;;;;;;;;;;5091495;28;985;-66
2022/05/08 16:09:37;;;;;;;;;;;;;;;;;;5090258;28;1943;-66
2022/05/08 16:12:04;;;;;;;;;;;;;;;;;;5091713;28;1241;-66
2022/05/08 16:25:28;;;;;;;;;;;;;;;;;;5090833;28;755;-66
2022/05/08 16:27:54;;;;;;;;;;;;;;;;;;5090372;28;1215;-66
2022/05/08 16:30:20;;;;;;;;;;;;;;;;;;5090097;28;1906;-66
2022/05/08 16:32:45;;;;;;;;;;;;;;;;;;5090261;28;1007;-66
2022/05/08 16:35:11;;;;;;;;;;;;;;;;;;5091707;28;860;-66
2022/05/08 16:37:37;;;;;;;;;;;;;;;;;;5091560;28;911;-65
2022/05/08 16:40:03;;;;;;;;;;;;;;;;;;5091402;28;825;-65
2022/05/08 16:42:28;;;;;;;;;;;;;;;;;;5091646;28;922;-65
2022/05/08 16:44:55;;;;;;;;;;;;;;;;;;5090303;28;1486;-65
2022/05/08 16:47:21;;;;;;;;;;;;;;;;;;5091596;28;832;-65
2022/05/08 16:49:46;;;;;;;;;;;;;;;;;;5091131;28;1875;-65
2022/05/08 16:52:11;;;;;;;;;;;;;;;;;;5091308;28;959;-64
2022/05/08 16:54:37;;;;;;;;;;;;;;;;;;5091255;28;1225;-65
2022/05/08 16:57:02;;;;;;;;;;;;;;;;;;5091774;28;825;-65
2022/05/08 16:59:27;;;;;;;;;;;;;;;;;;5091727;28;860;-65
2022/05/08 17:01:54;;;;;;;;;;;;;;;;;;5090381;28;1179;-65
2022/05/08 17:04:19;;;;;;;;;;;;;;;;;;5089847;28;1263;-65
2022/05/08 17:06:44;;;;;;;;;;;;;;;;;;5089738;28;1357;-65
2022/05/08 17:09:10;;;;;;;;;;;;;;;;;;5072733;28;1212;-65
2022/05/08 17:11:37;;;;;;;;;;;;;;;;;;5089402;28;1898;-65
2022/05/08 17:14:03;;;;;;;;;;;;;;;;;;5089183;28;1255;-65
2022/05/08 17:16:28;;;;;;;;;;;;;;;;;;5094500;28;789;-65
2022/05/08 17:18:53;;;;;;;;;;;;;;;;;;5095058;28;960;-65
2022/05/08 17:21:18;;;;;;;;;;;;;;;;;;5095007;28;777;-64
2022/05/08 17:23:44;;;;;;;;;;;;;;;;;;5094511;28;1035;-65
2022/05/08 17:26:09;;;;;;;;;;;;;;;;;;5093456;28;726;-65
2022/05/08 17:28:48;;;;;;;;;;;;;;;;;;5094383;28;762;-64
2022/05/08 17:31:14;;;;;;;;;;;;;;;;;;5093294;28;1979;-65
2022/05/08 17:33:39;;;;;;;;;;;;;;;;;;5093146;28;1234;-64
2022/05/08 17:36:04;;;;;;;;;;;;;;;;;;5076276;28;1388;-65
2022/05/08 17:38:30;;;;;;;;;;;;;;;;;;5093081;28;1437;-64
2022/05/08 17:40:55;;;;;;;;;;;;;;;;;;5094603;28;821;-65
2022/05/08 17:43:20;;;;;;;;;;;;;;;;;;5094286;28;903;-65
2022/05/08 17:45:47;;;;;;;;;;;;;;;;;;5093691;28;947;-65
2022/05/08 17:48:13;;;;;;;;;;;;;;;;;;5093865;28;1014;-64
2022/05/08 17:50:38;;;;;;;;;;;;;;;;;;5094109;28;1969;-64
2022/05/08 17:53:04;;;;;;;;;;;;;;;;;;5094264;28;849;-64